Time;durP1;ratioP1;P1;durP2;ratioP2;P2;SDS_P1;SDS_P2;PMS_P1;PMS_P2;Temp;Humidity;BMP_temperature;BMP_pressure;BME280_temperature;BME280_humidity;BME280_pressure;Samples;Min_cycle;Max_cycle;Signal;HPM_P1;HPM_P2
2021/11/17 02:26:47;;;;;;;136.00;41.17;;;2.10;99.90;;;;;;5073954;28;20265;-83
2021/11/17 02:29:50;;;;;;;107.13;35.00;;;2.10;99.90;;;;;;5056151;28;20191;-84
2021/11/17 02:32:56;;;;;;;99.77;34.50;;;2.10;99.90;;;;;;5055872;28;20181;-84
2021/11/17 02:35:47;;;;;;;110.00;39.03;;;2.00;99.90;;;;;;5039674;28;20521;-84
2021/11/17 02:38:26;;;;;;;99.53;36.30;;;2.00;99.90;;;;;;5055829;28;20640;-84
2021/11/17 02:40:51;;;;;;;96.33;34.53;;;2.10;99.90;;;;;;5055910;28;20259;-84
2021/11/17 02:43:33;;;;;;;111.13;40.57;;;2.00;99.90;;;;;;5055866;28;20277;-83
2021/11/17 02:46:33;;;;;;;129.53;61.20;;;2.00;99.90;;;;;;5039231;28;20198;-83
2021/11/17 02:49:24;;;;;;;96.90;36.00;;;2.00;99.90;;;;;;5055896;28;20212;-83
2021/11/17 02:52:05;;;;;;;134.47;33.57;;;2.00;99.90;;;;;;5038813;28;20266;-84
2021/11/17 02:54:33;;;;;;;99.23;36.00;;;2.00;99.90;;;;;;5055719;28;20253;-83
2021/11/17 02:57:18;;;;;;;111.07;40.67;;;2.00;99.90;;;;;;5073606;28;20223;-83
2021/11/17 03:00:08;;;;;;;106.70;35.67;;;2.00;99.90;;;;;;5055295;28;20652;-84
2021/11/17 03:03:17;;;;;;;87.73;32.10;;;2.10;99.90;;;;;;5039030;28;20170;-84
2021/11/17 03:06:16;;;;;;;109.40;34.80;;;2.00;99.90;;;;;;5073285;28;20181;-85
2021/11/17 03:08:44;;;;;;;92.53;34.67;;;2.00;99.90;;;;;;5017976;28;20189;-89
2021/11/17 03:11:25;;;;;;;103.27;37.77;;;2.00;99.90;;;;;;5055698;28;20180;-84
2021/11/17 03:13:50;;;;;;;95.67;30.87;;;2.00;99.90;;;;;;5073124;28;20191;-85
2021/11/17 03:16:41;;;;;;;111.17;31.97;;;2.00;99.90;;;;;;5055483;28;20260;-85
2021/11/17 03:19:12;;;;;;;92.30;31.43;;;2.00;99.90;;;;;;5073139;28;20183;-85
2021/11/17 03:21:52;;;;;;;102.17;36.40;;;1.90;99.90;;;;;;5055573;28;20548;-84
2021/11/17 03:24:44;;;;;;;97.00;34.23;;;1.90;99.90;;;;;;5055642;28;20240;-84
2021/11/17 03:27:27;;;;;;;117.00;37.33;;;1.90;99.90;;;;;;5073352;28;20246;-84
2021/11/17 03:30:14;;;;;;;102.07;33.93;;;2.00;99.90;;;;;;5073235;28;20195;-84
2021/11/17 03:32:55;;;;;;;104.17;36.50;;;2.00;99.90;;;;;;5055396;28;20233;-84
2021/11/17 03:35:43;;;;;;;103.37;32.90;;;1.90;99.90;;;;;;5055505;28;20191;-84
2021/11/17 03:38:45;;;;;;;109.37;33.37;;;1.90;99.90;;;;;;5039924;28;20181;-84
2021/11/17 03:41:46;;;;;;;98.00;36.27;;;1.90;99.90;;;;;;5073424;28;20639;-84
2021/11/17 03:44:17;;;;;;;86.93;36.53;;;1.90;99.90;;;;;;5034099;28;20218;-84
2021/11/17 03:47:02;;;;;;;113.10;39.60;;;1.90;99.90;;;;;;5055487;28;20191;-84
2021/11/17 03:50:10;;;;;;;101.30;35.97;;;1.90;99.90;;;;;;5049235;28;20175;-85
2021/11/17 03:52:42;;;;;;;103.30;34.60;;;1.90;99.90;;;;;;5055296;28;20165;-84
2021/11/17 03:55:39;;;;;;;106.47;46.47;;;1.90;99.90;;;;;;5055079;28;20231;-84
2021/11/17 03:58:21;;;;;;;108.73;40.57;;;1.90;99.90;;;;;;5038486;28;20171;-85
2021/11/17 04:01:12;;;;;;;93.53;33.60;;;1.80;99.90;;;;;;5055117;28;20192;-87
2021/11/17 04:03:52;;;;;;;87.80;31.40;;;1.80;99.90;;;;;;5073839;28;20210;-85
2021/11/17 04:06:36;;;;;;;98.47;35.77;;;1.80;99.90;;;;;;5043707;28;20156;-86
2021/11/17 04:09:20;;;;;;;160.53;55.50;;;1.70;99.90;;;;;;5040190;28;20620;-85
2021/11/17 04:12:37;;;;;;;112.20;40.97;;;2.10;99.90;;;;;;5056193;28;20236;-85
2021/11/17 04:15:36;;;;;;;134.93;56.77;;;1.80;99.90;;;;;;5018530;28;20224;-85
2021/11/17 04:18:19;;;;;;;95.80;34.60;;;1.80;99.90;;;;;;5060077;28;20209;-85
2021/11/17 04:21:16;;;;;;;83.47;33.33;;;1.80;99.90;;;;;;5054473;28;20236;-84
2021/11/17 04:24:05;;;;;;;81.73;32.77;;;1.80;99.90;;;;;;5036912;28;20191;-84
2021/11/17 04:26:55;;;;;;;110.23;44.93;;;2.00;99.90;;;;;;5037579;28;20678;-83
2021/11/17 04:29:35;;;;;;;101.13;34.70;;;1.80;99.90;;;;;;5038654;28;20167;-85
2021/11/17 04:32:32;;;;;;;100.07;35.43;;;1.80;99.90;;;;;;5038654;28;20634;-85
2021/11/17 04:35:20;;;;;;;116.77;42.17;;;1.80;99.90;;;;;;5042519;28;20213;-92
2021/11/17 04:38:09;;;;;;;111.10;42.30;;;1.80;99.90;;;;;;5060376;28;20165;-85
2021/11/17 04:41:15;;;;;;;95.67;39.37;;;1.80;99.90;;;;;;5044029;28;20188;-84
2021/11/17 04:43:52;;;;;;;106.60;38.63;;;1.80;99.90;;;;;;5062529;28;20161;-83
2021/11/17 04:46:24;;;;;;;80.63;32.60;;;1.80;99.90;;;;;;5060302;28;20196;-84
2021/11/17 04:49:24;;;;;;;86.60;34.63;;;1.80;99.90;;;;;;5060092;28;20173;-84
2021/11/17 04:51:58;;;;;;;78.97;31.13;;;1.80;99.90;;;;;;5060301;28;20149;-84
2021/11/17 04:54:54;;;;;;;82.93;30.70;;;1.80;99.90;;;;;;5060335;28;20216;-85
2021/11/17 04:57:54;;;;;;;88.77;35.50;;;1.80;99.90;;;;;;5052960;28;20172;-84
2021/11/17 05:00:47;;;;;;;86.37;33.13;;;1.80;99.90;;;;;;5042147;28;20485;-88
2021/11/17 05:03:25;;;;;;;93.60;33.83;;;1.80;99.90;;;;;;5059659;28;20173;-82
2021/11/17 05:06:12;;;;;;;106.57;37.13;;;1.70;99.90;;;;;;5059908;28;20157;-83
2021/11/17 05:09:05;;;;;;;99.63;40.93;;;1.70;99.90;;;;;;5058881;28;20290;-84
2021/11/17 05:11:55;;;;;;;113.47;45.07;;;1.70;99.90;;;;;;5060065;28;20157;-86
2021/11/17 05:14:32;;;;;;;129.33;51.57;;;1.80;99.90;;;;;;5059929;28;20196;-83
2021/11/17 05:17:29;;;;;;;91.37;35.80;;;1.80;99.90;;;;;;5059967;28;20152;-82
2021/11/17 05:20:33;;;;;;;110.80;37.90;;;1.80;99.90;;;;;;5059697;28;20216;-83
2021/11/17 05:23:11;;;;;;;96.17;34.27;;;1.80;99.90;;;;;;5013860;28;20649;-83
2021/11/17 05:25:45;;;;;;;87.57;31.73;;;1.90;99.90;;;;;;5047988;28;20180;-83
2021/11/17 05:28:20;;;;;;;116.77;38.20;;;1.80;99.90;;;;;;5044778;28;20293;-82
2021/11/17 05:31:24;;;;;;;87.17;27.80;;;1.80;99.90;;;;;;5042184;28;20173;-82
2021/11/17 05:33:59;;;;;;;78.17;28.50;;;1.70;99.90;;;;;;5010448;28;20230;-82
2021/11/17 05:36:49;;;;;;;72.33;29.03;;;1.60;99.90;;;;;;5041884;28;20168;-86
2021/11/17 05:39:30;;;;;;;83.07;28.23;;;2.50;99.90;;;;;;5032454;28;20184;-83
2021/11/17 05:42:15;;;;;;;90.57;33.67;;;1.70;99.90;;;;;;5059000;28;20161;-82
2021/11/17 05:45:01;;;;;;;93.73;34.97;;;1.70;99.90;;;;;;5059020;28;20199;-83
2021/11/17 05:47:45;;;;;;;125.60;46.93;;;1.60;99.90;;;;;;5058878;28;20161;-83
2021/11/17 05:50:20;;;;;;;171.03;66.00;;;1.60;99.90;;;;;;5057987;28;20178;-83
2021/11/17 05:53:06;;;;;;;103.70;43.00;;;1.60;99.90;;;;;;5052766;28;20188;-81
2021/11/17 05:55:50;;;;;;;86.50;37.67;;;1.50;99.90;;;;;;5052848;28;20180;-82
2021/11/17 05:58:41;;;;;;;64.33;27.40;;;1.50;99.90;;;;;;5042023;28;20157;-83
2021/11/17 06:01:25;;;;;;;81.70;30.67;;;1.50;99.90;;;;;;5058838;28;20145;-90
2021/11/17 06:03:58;;;;;;;84.30;25.40;;;1.40;99.90;;;;;;5059128;28;20173;-83
2021/11/17 06:06:24;;;;;;;73.33;26.07;;;1.40;99.90;;;;;;5056902;28;20291;-85
2021/11/17 06:08:54;;;;;;;77.03;27.67;;;1.40;99.90;;;;;;5052231;28;20178;-83
2021/11/17 06:11:26;;;;;;;74.37;25.63;;;2.20;99.90;;;;;;5033437;28;20185;-84
2021/11/17 06:13:53;;;;;;;74.13;29.27;;;2.80;99.90;;;;;;5034773;28;20678;-84
2021/11/17 06:16:19;;;;;;;75.10;32.17;;;2.40;99.90;;;;;;5053826;28;20263;-83
2021/11/17 06:18:45;;;;;;;76.50;31.20;;;1.80;99.90;;;;;;5054186;28;20614;-83
2021/11/17 06:21:13;;;;;;;77.03;31.80;;;2.20;99.90;;;;;;5050996;28;20246;-83
2021/11/17 06:23:47;;;;;;;91.43;35.00;;;2.40;99.90;;;;;;5052778;28;20284;-83
2021/11/17 06:26:15;;;;;;;101.93;34.10;;;2.80;99.90;;;;;;5044845;28;20174;-83
2021/11/17 06:28:41;;;;;;;101.23;37.37;;;1.50;99.90;;;;;;5037796;28;20191;-83
2021/11/17 06:31:06;;;;;;;103.43;36.40;;;1.50;99.90;;;;;;5002795;28;20188;-82
2021/11/17 06:33:32;;;;;;;87.47;32.60;;;1.50;99.90;;;;;;5035056;28;20230;-84
2021/11/17 06:35:58;;;;;;;67.83;27.97;;;1.50;99.90;;;;;;5032719;28;20219;-82
2021/11/17 06:38:24;;;;;;;86.67;32.57;;;1.50;99.90;;;;;;5032735;28;20220;-84
2021/11/17 06:40:52;;;;;;;96.73;36.87;;;1.50;99.90;;;;;;5034553;28;20176;-83
2021/11/17 06:43:18;;;;;;;108.73;36.03;;;1.50;99.90;;;;;;5032936;28;20204;-84
2021/11/17 06:45:52;;;;;;;108.60;38.03;;;1.50;99.90;;;;;;5032648;28;20239;-84
2021/11/17 06:48:22;;;;;;;96.17;38.60;;;1.50;99.90;;;;;;5034061;28;20210;-85
2021/11/17 06:50:49;;;;;;;99.50;36.73;;;1.50;99.90;;;;;;5034357;28;20177;-83
2021/11/17 06:53:15;;;;;;;99.20;36.90;;;1.80;99.90;;;;;;5020189;28;20212;-81
2021/11/17 06:55:41;;;;;;;82.47;33.33;;;1.60;99.90;;;;;;5032730;28;20180;-84
2021/11/17 06:58:09;;;;;;;94.47;34.47;;;3.10;99.90;;;;;;5033782;28;20196;-84
2021/11/17 07:00:38;;;;;;;92.17;35.13;;;1.70;99.90;;;;;;5032178;28;20185;-84
2021/11/17 07:03:04;;;;;;;111.10;35.73;;;1.70;99.90;;;;;;5033636;28;20183;-83
2021/11/17 07:05:30;;;;;;;90.47;34.27;;;2.30;99.90;;;;;;5033092;28;20176;-84
2021/11/17 07:07:59;;;;;;;94.00;34.70;;;1.60;99.90;;;;;;5033162;28;20215;-84
2021/11/17 07:10:26;;;;;;;57.10;26.03;;;1.70;99.90;;;;;;5033697;28;20219;-83
2021/11/17 07:12:53;;;;;;;61.77;24.10;;;1.60;99.90;;;;;;5033622;28;20264;-83
2021/11/17 07:15:20;;;;;;;68.50;26.60;;;1.50;99.90;;;;;;5031919;28;20240;-83
2021/11/17 07:17:46;;;;;;;74.23;30.90;;;1.50;99.90;;;;;;5032264;28;20203;-83
2021/11/17 07:20:14;;;;;;;71.20;33.03;;;1.50;99.90;;;;;;5053193;28;20719;-83
2021/11/17 07:22:41;;;;;;;78.37;28.37;;;2.20;99.90;;;;;;5073360;28;20551;-84
2021/11/17 07:25:08;;;;;;;65.87;27.83;;;1.60;99.90;;;;;;5072938;28;20179;-83
2021/11/17 07:27:36;;;;;;;61.60;26.07;;;1.60;99.90;;;;;;5055080;28;20326;-83
2021/11/17 07:30:05;;;;;;;92.13;30.10;;;1.60;99.90;;;;;;5038677;28;20628;-83
2021/11/17 07:32:31;;;;;;;91.73;35.27;;;1.60;99.90;;;;;;5073139;28;20636;-86
2021/11/17 07:34:56;;;;;;;82.40;31.23;;;2.20;99.90;;;;;;5057296;28;20211;-82
2021/11/17 07:37:22;;;;;;;100.23;35.03;;;1.70;99.90;;;;;;5055210;28;20187;-83
2021/11/17 07:39:48;;;;;;;79.00;29.43;;;1.80;99.90;;;;;;5054986;28;20179;-83
2021/11/17 07:42:14;;;;;;;137.93;43.73;;;1.80;99.90;;;;;;5054764;28;20632;-84
2021/11/17 07:44:41;;;;;;;105.80;35.57;;;1.80;99.90;;;;;;5054219;28;20236;-83
2021/11/17 07:47:07;;;;;;;78.70;31.60;;;3.30;99.90;;;;;;5039589;28;20280;-83
2021/11/17 07:49:33;;;;;;;71.63;29.70;;;1.70;99.90;;;;;;5042110;28;20275;-83
2021/11/17 07:51:59;;;;;;;61.57;25.07;;;1.70;99.90;;;;;;5059174;28;20176;-83
2021/11/17 07:54:26;;;;;;;72.90;30.00;;;1.90;99.90;;;;;;5058608;28;20276;-84
2021/11/17 07:56:53;;;;;;;79.80;30.27;;;2.30;99.90;;;;;;5042151;28;20594;-82
2021/11/17 07:59:24;;;;;;;74.10;30.17;;;3.20;99.90;;;;;;5042224;28;20186;-87
2021/11/17 08:01:52;;;;;;;86.67;32.00;;;1.70;99.90;;;;;;5076683;28;20255;-84
2021/11/17 08:04:19;;;;;;;80.00;30.30;;;2.80;99.90;;;;;;5058329;28;20640;-83
2021/11/17 08:06:46;;;;;;;62.93;28.23;;;1.70;99.90;;;;;;5057767;28;20176;-84
2021/11/17 08:09:13;;;;;;;61.00;26.70;;;1.80;99.90;;;;;;5057020;28;20185;-82
2021/11/17 08:11:40;;;;;;;62.50;25.73;;;1.80;99.90;;;;;;5057894;28;20637;-83
2021/11/17 08:14:05;;;;;;;66.00;29.53;;;1.80;99.90;;;;;;5057373;28;20207;-83
2021/11/17 08:16:31;;;;;;;80.10;32.63;;;1.90;99.90;;;;;;5075213;28;20180;-83
2021/11/17 08:18:57;;;;;;;66.43;28.60;;;2.20;99.90;;;;;;5074906;28;20180;-84
2021/11/17 08:21:23;;;;;;;78.33;32.20;;;2.10;99.90;;;;;;5074663;28;20818;-83
2021/11/17 08:23:48;;;;;;;77.67;30.20;;;3.40;99.90;;;;;;5058724;28;20209;-82
2021/11/17 08:26:16;;;;;;;77.47;33.57;;;2.00;99.90;;;;;;5075721;28;20262;-84
2021/11/17 08:28:42;;;;;;;74.57;32.97;;;2.00;99.90;;;;;;5075851;28;20827;-82
2021/11/17 08:31:11;;;;;;;77.03;26.33;;;2.10;99.90;;;;;;5040774;28;20237;-83
2021/11/17 08:33:36;;;;;;;66.50;27.27;;;2.00;99.90;;;;;;5057397;28;20203;-83
2021/11/17 08:36:03;;;;;;;70.97;27.47;;;2.00;99.90;;;;;;5058191;28;20279;-82
2021/11/17 08:38:30;;;;;;;80.43;34.20;;;2.00;99.90;;;;;;5057986;28;20179;-82
2021/11/17 08:41:03;;;;;;;84.90;34.27;;;2.10;99.90;;;;;;5041672;28;20180;-82
2021/11/17 08:43:30;;;;;;;98.43;38.27;;;2.20;99.90;;;;;;5075287;28;20608;-82
2021/11/17 08:45:56;;;;;;;60.10;26.60;;;2.20;99.90;;;;;;5057893;28;20276;-85
2021/11/17 08:48:25;;;;;;;84.50;34.03;;;2.20;99.90;;;;;;5057780;28;20207;-82
2021/11/17 08:50:52;;;;;;;63.33;28.63;;;2.20;99.90;;;;;;5057862;28;20189;-82
2021/11/17 08:53:19;;;;;;;68.77;28.30;;;2.20;99.90;;;;;;5040726;28;20185;-82
2021/11/17 08:55:45;;;;;;;54.70;25.37;;;3.60;99.90;;;;;;5040650;28;20183;-82
2021/11/17 08:58:13;;;;;;;61.37;25.90;;;3.50;99.90;;;;;;5057128;28;20206;-82
2021/11/17 09:00:39;;;;;;;47.43;22.60;;;2.20;99.90;;;;;;5075635;28;20176;-82
2021/11/17 09:03:07;;;;;;;54.00;22.40;;;2.20;99.90;;;;;;5075604;28;20177;-83
2021/11/17 09:05:40;;;;;;;50.53;23.73;;;3.20;99.90;;;;;;5074604;28;20655;-82
2021/11/17 09:08:06;;;;;;;57.47;23.73;;;2.10;99.90;;;;;;5075320;28;20525;-82
2021/11/17 09:10:37;;;;;;;56.50;26.43;;;2.10;99.90;;;;;;5057559;28;20708;-82
2021/11/17 09:13:04;;;;;;;53.87;24.37;;;2.10;99.90;;;;;;5057748;28;20321;-82
2021/11/17 09:15:33;;;;;;;64.67;28.50;;;2.20;99.90;;;;;;5057429;28;20181;-83
2021/11/17 09:17:59;;;;;;;63.80;29.57;;;2.30;99.90;;;;;;5074784;28;20248;-83
2021/11/17 09:20:26;;;;;;;66.27;29.03;;;2.90;99.90;;;;;;5041493;28;20236;-83
2021/11/17 09:22:52;;;;;;;60.70;26.10;;;3.60;99.90;;;;;;5033930;28;20182;-81
2021/11/17 09:25:20;;;;;;;54.23;25.40;;;2.80;99.90;;;;;;5034062;28;20188;-82
2021/11/17 09:27:46;;;;;;;56.53;26.10;;;2.40;99.90;;;;;;5035419;28;20610;-81
2021/11/17 09:30:16;;;;;;;60.33;26.30;;;2.50;99.90;;;;;;5034851;28;20598;-81
2021/11/17 09:32:42;;;;;;;56.37;25.87;;;3.80;99.90;;;;;;5033861;28;20190;-82
2021/11/17 09:35:13;;;;;;;55.57;25.63;;;2.60;99.90;;;;;;5033725;28;20214;-81
2021/11/17 09:37:40;;;;;;;58.90;25.57;;;2.60;99.90;;;;;;5035048;28;20179;-82
2021/11/17 09:40:09;;;;;;;57.93;24.90;;;2.60;99.90;;;;;;5035033;28;20182;-82
2021/11/17 09:42:36;;;;;;;57.97;25.53;;;2.60;99.90;;;;;;5034918;28;20208;-82
2021/11/17 09:45:03;;;;;;;55.10;24.63;;;2.60;99.90;;;;;;5033942;28;20194;-80
2021/11/17 09:47:31;;;;;;;52.77;24.10;;;2.50;99.90;;;;;;5034877;28;20175;-80
2021/11/17 09:49:59;;;;;;;48.37;23.13;;;2.50;99.90;;;;;;5033574;28;20180;-82
2021/11/17 09:52:43;;;;;;;54.10;24.47;;;2.60;99.90;;;;;;5033483;28;20548;-81
2021/11/17 09:55:25;;;;;;;46.00;22.10;;;2.80;99.90;;;;;;5033669;28;20308;-81
2021/11/17 09:57:57;;;;;;;54.70;26.10;;;2.50;99.90;;;;;;5033521;28;20190;-82
2021/11/17 10:00:39;;;;;;;58.13;25.10;;;2.50;99.90;;;;;;5033589;28;20177;-82
2021/11/17 10:03:08;;;;;;;52.20;24.57;;;2.50;99.90;;;;;;5034500;28;20532;-82
2021/11/17 10:14:04;;;;;;;58.27;25.77;;;2.80;99.90;;;;;;5010676;28;20209;-82
2021/11/17 10:16:30;;;;;;;60.13;26.67;;;2.70;99.90;;;;;;5034516;28;20642;-81
2021/11/17 10:19:23;;;;;;;62.37;25.47;;;2.70;99.90;;;;;;5032885;28;20661;-81
2021/11/17 10:22:08;;;;;;;64.07;28.00;;;2.70;99.90;;;;;;5033935;28;20191;-82
2021/11/17 10:24:52;;;;;;;67.97;27.90;;;2.60;99.90;;;;;;5032229;28;20180;-82
2021/11/17 10:27:25;;;;;;;73.10;29.83;;;2.70;99.90;;;;;;5033281;28;20168;-83
2021/11/17 10:30:20;;;;;;;68.80;29.77;;;2.70;99.90;;;;;;5032166;28;20210;-82
2021/11/17 10:33:16;;;;;;;57.70;27.63;;;2.80;99.90;;;;;;5032967;28;20654;-82
2021/11/17 10:35:53;;;;;;;68.57;28.13;;;2.80;99.90;;;;;;5032481;28;20190;-83
2021/11/17 10:38:23;;;;;;;54.77;25.27;;;2.80;99.90;;;;;;5032736;28;20272;-82
2021/11/17 10:40:57;;;;;;;55.17;24.70;;;2.70;99.90;;;;;;5032568;28;20237;-82
2021/11/17 10:43:33;;;;;;;58.50;25.33;;;2.80;99.90;;;;;;5033921;28;20680;-82
2021/11/17 10:46:17;;;;;;;64.27;28.53;;;2.80;99.90;;;;;;5032363;28;20629;-81
2021/11/17 10:48:54;;;;;;;58.97;26.57;;;2.80;99.90;;;;;;5032487;28;20230;-82
2021/11/17 10:51:32;;;;;;;78.43;32.37;;;2.70;99.90;;;;;;5032477;28;20219;-82
2021/11/17 10:54:01;;;;;;;94.90;35.87;;;2.90;99.90;;;;;;5031996;28;20223;-81
2021/11/17 10:56:31;;;;;;;86.13;35.70;;;3.00;99.90;;;;;;5033604;28;20179;-82
2021/11/17 10:58:59;;;;;;;78.83;32.10;;;3.10;99.90;;;;;;5033630;28;20181;-81
2021/11/17 11:01:30;;;;;;;91.17;35.37;;;3.20;99.90;;;;;;5033492;28;20190;-81
2021/11/17 11:04:09;;;;;;;78.03;34.03;;;3.10;99.90;;;;;;5031830;28;20184;-82
2021/11/17 11:07:11;;;;;;;69.87;31.37;;;3.20;99.90;;;;;;5031837;28;20221;-81
2021/11/17 11:09:44;;;;;;;69.77;30.27;;;3.30;99.90;;;;;;5032242;28;20216;-82
2021/11/17 11:12:14;;;;;;;59.80;26.97;;;3.40;99.90;;;;;;5032058;28;20176;-81
2021/11/17 11:14:48;;;;;;;70.80;30.20;;;3.70;99.90;;;;;;5032125;28;20276;-81
2021/11/17 11:17:20;;;;;;;65.87;29.40;;;3.30;99.90;;;;;;5032127;28;20253;-82
2021/11/17 11:19:45;;;;;;;61.90;27.87;;;3.40;99.90;;;;;;5040416;28;20229;-83
2021/11/17 11:22:15;;;;;;;61.83;26.67;;;3.90;99.90;;;;;;5041187;28;20186;-82
2021/11/17 11:24:45;;;;;;;59.27;27.00;;;3.30;99.90;;;;;;5059449;28;20181;-82
2021/11/17 11:27:36;;;;;;;62.60;27.90;;;3.40;99.90;;;;;;5059541;28;20586;-82
2021/11/17 11:30:02;;;;;;;75.37;32.60;;;3.40;99.90;;;;;;5073017;28;20224;-81
2021/11/17 11:32:28;;;;;;;67.10;29.83;;;3.50;99.90;;;;;;5079735;28;20614;-82
2021/11/17 11:34:59;;;;;;;64.30;29.70;;;3.50;99.90;;;;;;5081338;28;20226;-82
2021/11/17 11:37:25;;;;;;;64.80;27.07;;;3.50;99.90;;;;;;5085734;28;20183;-84
2021/11/17 11:39:56;;;;;;;69.30;30.17;;;3.50;99.90;;;;;;5085903;28;20639;-82
2021/11/17 11:42:41;;;;;;;75.17;30.93;;;3.50;99.90;;;;;;5082213;28;20170;-81
2021/11/17 11:45:09;;;;;;;63.47;27.70;;;3.60;99.90;;;;;;5083089;28;20165;-81
2021/11/17 11:47:53;;;;;;;55.50;28.67;;;3.50;99.90;;;;;;5066190;28;20202;-81
2021/11/17 11:50:30;;;;;;;66.40;28.30;;;4.80;99.90;;;;;;5078129;28;20171;-81
2021/11/17 11:53:12;;;;;;;53.63;26.17;;;3.60;99.90;;;;;;5062731;28;20522;-81
2021/11/17 11:55:49;;;;;;;74.33;29.70;;;3.60;99.90;;;;;;5079896;28;20167;-81
2021/11/17 11:58:18;;;;;;;64.30;29.53;;;3.60;99.90;;;;;;5063227;28;20584;-80
2021/11/17 12:00:46;;;;;;;74.30;30.97;;;3.70;99.90;;;;;;5077809;28;20189;-82
2021/11/17 12:03:15;;;;;;;87.37;35.47;;;3.70;99.90;;;;;;5077375;28;20674;-82
2021/11/17 12:05:44;;;;;;;75.83;34.80;;;3.70;99.90;;;;;;5076807;28;20638;-82
2021/11/17 12:08:21;;;;;;;74.93;31.87;;;3.80;99.90;;;;;;5079783;28;20171;-83
2021/11/17 12:11:05;;;;;;;77.90;33.20;;;3.80;99.90;;;;;;5059076;28;20268;-82
2021/11/17 12:14:03;;;;;;;72.93;31.60;;;3.80;99.90;;;;;;5076612;28;20266;-82
2021/11/17 12:16:34;;;;;;;71.53;29.10;;;3.90;99.90;;;;;;5069740;28;20194;-82
2021/11/17 12:19:27;;;;;;;69.17;30.33;;;3.90;99.90;;;;;;5087749;28;20181;-82
2021/11/17 12:22:04;;;;;;;68.93;31.87;;;3.90;99.90;;;;;;5069761;28;20193;-83
2021/11/17 12:24:50;;;;;;;77.00;32.07;;;3.90;99.90;;;;;;5072647;28;20178;-82
2021/11/17 12:27:21;;;;;;;69.30;31.23;;;3.90;99.90;;;;;;5083973;28;20154;-82
2021/11/17 12:29:54;;;;;;;77.30;32.87;;;3.90;99.90;;;;;;5083859;28;20208;-81
2021/11/17 12:32:28;;;;;;;64.63;30.03;;;3.80;99.90;;;;;;5083769;28;20196;-84
2021/11/17 12:35:04;;;;;;;70.93;31.97;;;3.80;99.90;;;;;;5082300;28;20211;-90
2021/11/17 12:37:29;;;;;;;84.47;34.37;;;3.70;99.90;;;;;;5097097;28;20264;-83
2021/11/17 12:40:13;;;;;;;86.63;35.17;;;3.60;99.90;;;;;;5078946;28;20187;-87
2021/11/17 12:42:50;;;;;;;79.33;33.37;;;3.70;99.90;;;;;;5100524;28;20155;-83
2021/11/17 12:45:19;;;;;;;58.43;28.20;;;3.70;99.90;;;;;;5083233;28;20172;-83
2021/11/17 12:48:04;;;;;;;59.33;28.67;;;3.60;99.90;;;;;;5083409;28;20186;-84
2021/11/17 12:50:43;;;;;;;49.37;23.77;;;3.70;99.90;;;;;;5069383;28;20183;-82
2021/11/17 12:53:12;;;;;;;60.73;29.20;;;3.60;99.90;;;;;;5058245;28;20265;-85
2021/11/17 12:55:43;;;;;;;57.07;27.23;;;3.50;99.90;;;;;;5057968;28;20191;-82
2021/11/17 12:58:34;;;;;;;58.57;28.00;;;3.50;99.90;;;;;;5058551;28;20178;-84
2021/11/17 13:01:30;;;;;;;61.17;28.63;;;3.50;99.90;;;;;;5044813;28;20224;-82
2021/11/17 13:03:55;;;;;;;57.13;27.53;;;3.50;99.90;;;;;;5041302;28;20219;-83
2021/11/17 13:06:28;;;;;;;57.70;27.63;;;3.50;99.90;;;;;;5057099;28;20182;-83
2021/11/17 13:09:28;;;;;;;63.67;28.43;;;3.50;99.90;;;;;;5058355;28;20184;-83
2021/11/17 13:12:06;;;;;;;69.40;30.73;;;3.50;99.90;;;;;;5039045;28;20218;-84
2021/11/17 13:14:43;;;;;;;77.00;32.00;;;3.60;99.90;;;;;;5057371;28;20217;-83
2021/11/17 13:17:33;;;;;;;71.83;30.80;;;3.50;99.90;;;;;;5056755;28;20264;-83
2021/11/17 13:20:28;;;;;;;70.77;30.07;;;3.60;99.90;;;;;;5050389;28;20744;-83
2021/11/17 13:22:56;;;;;;;80.93;35.83;;;3.50;99.90;;;;;;5050784;28;20190;-82
2021/11/17 13:25:30;;;;;;;66.47;32.50;;;3.60;99.90;;;;;;5034027;28;20184;-83
2021/11/17 13:28:03;;;;;;;79.90;33.53;;;3.50;99.90;;;;;;5033097;28;20184;-83
2021/11/17 13:30:40;;;;;;;69.43;32.27;;;3.50;99.90;;;;;;5032713;28;20639;-83
2021/11/17 13:33:26;;;;;;;68.97;31.93;;;3.50;99.90;;;;;;5033048;28;20185;-83
2021/11/17 13:36:13;;;;;;;58.37;28.73;;;3.40;99.90;;;;;;5034329;28;20192;-84
2021/11/17 13:38:53;;;;;;;67.23;32.27;;;3.40;99.90;;;;;;5033053;28;20176;-84
2021/11/17 13:41:19;;;;;;;68.10;30.57;;;3.40;99.90;;;;;;5034511;28;20166;-83
2021/11/17 13:43:44;;;;;;;94.40;35.60;;;3.50;99.90;;;;;;5033076;28;20196;-85
2021/11/17 13:46:16;;;;;;;70.00;31.90;;;3.50;99.90;;;;;;5033675;28;20274;-84
2021/11/17 13:48:44;;;;;;;71.60;32.70;;;3.60;99.90;;;;;;5033540;28;20180;-83
2021/11/17 13:51:13;;;;;;;75.37;34.03;;;3.40;99.90;;;;;;5034223;28;20241;-84
2021/11/17 13:53:41;;;;;;;85.40;35.20;;;3.40;99.90;;;;;;5035488;28;20204;-84
2021/11/17 13:56:11;;;;;;;79.80;32.43;;;3.40;99.90;;;;;;5033863;28;20323;-83
2021/11/17 13:58:38;;;;;;;75.53;32.03;;;3.40;99.90;;;;;;5035336;28;20168;-83
2021/11/17 14:01:05;;;;;;;73.77;31.03;;;3.40;99.90;;;;;;5033765;28;20179;-85
2021/11/17 14:03:32;;;;;;;73.10;31.37;;;3.40;99.90;;;;;;5034324;28;20185;-85
2021/11/17 14:06:03;;;;;;;76.20;37.33;;;3.40;99.90;;;;;;5035312;28;20215;-83
2021/11/17 14:08:30;;;;;;;90.37;38.63;;;3.40;99.90;;;;;;5050481;28;20215;-82
2021/11/17 14:10:56;;;;;;;92.93;41.83;;;3.60;99.90;;;;;;5033349;28;20179;-82
2021/11/17 14:13:22;;;;;;;83.33;38.30;;;3.40;99.90;;;;;;5033374;28;20191;-84
2021/11/17 14:15:49;;;;;;;94.20;40.17;;;3.40;99.90;;;;;;5034872;28;20223;-83
2021/11/17 14:18:14;;;;;;;99.60;39.83;;;3.40;99.90;;;;;;5034655;28;20791;-83
2021/11/17 14:20:40;;;;;;;99.40;39.30;;;4.30;99.90;;;;;;5016787;28;20239;-84
2021/11/17 14:23:07;;;;;;;81.00;33.80;;;3.40;99.90;;;;;;5033310;28;20187;-87
2021/11/17 14:25:35;;;;;;;80.07;32.67;;;4.60;99.90;;;;;;5033160;28;20211;-83
2021/11/17 14:28:05;;;;;;;84.53;34.30;;;3.40;99.90;;;;;;5033004;28;20656;-83
2021/11/17 14:30:41;;;;;;;82.37;32.33;;;3.50;99.90;;;;;;5034228;28;20542;-84
2021/11/17 14:33:09;;;;;;;92.67;32.90;;;3.30;99.90;;;;;;5034616;28;20541;-86
2021/11/17 14:35:35;;;;;;;87.20;33.87;;;3.30;99.90;;;;;;5032407;28;20284;-82
2021/11/17 14:38:01;;;;;;;89.00;33.33;;;3.30;99.90;;;;;;5032599;28;20710;-81
2021/11/17 14:40:29;;;;;;;88.73;32.60;;;3.60;99.90;;;;;;5016370;28;20341;-81
2021/11/17 14:42:55;;;;;;;82.93;31.70;;;4.00;99.90;;;;;;5033729;28;20273;-83
2021/11/17 14:45:24;;;;;;;83.67;33.50;;;3.20;99.90;;;;;;5033838;28;20187;-82
2021/11/17 14:47:50;;;;;;;84.77;31.13;;;3.30;99.90;;;;;;5033499;28;20190;-81
2021/11/17 14:50:17;;;;;;;91.83;33.60;;;3.30;99.90;;;;;;5033609;28;20177;-83
2021/11/17 14:52:43;;;;;;;85.93;33.33;;;3.20;99.90;;;;;;5016899;28;20207;-89
2021/11/17 14:55:14;;;;;;;94.17;34.67;;;1.70;99.90;;;;;;5016477;28;20290;-82
2021/11/17 14:57:41;;;;;;;100.23;39.17;;;3.30;99.90;;;;;;5032635;28;20185;-82
2021/11/17 15:00:14;;;;;;;91.00;34.17;;;3.30;99.90;;;;;;5033068;28;20185;-83
2021/11/17 15:02:41;;;;;;;85.10;29.00;;;3.20;99.90;;;;;;5033063;28;20232;-82
2021/11/17 15:05:08;;;;;;;85.30;32.47;;;3.20;99.90;;;;;;5033929;28;20192;-82
2021/11/17 15:07:34;;;;;;;88.10;33.00;;;3.20;99.90;;;;;;5034018;28;20185;-82
2021/11/17 15:10:01;;;;;;;95.00;32.73;;;3.20;99.90;;;;;;5016266;28;20186;-84
2021/11/17 15:12:32;;;;;;;92.37;34.20;;;3.20;99.90;;;;;;5033109;28;20275;-82
2021/11/17 15:14:59;;;;;;;98.63;34.17;;;3.20;99.90;;;;;;5034264;28;20231;-82
2021/11/17 15:17:25;;;;;;;91.37;33.77;;;3.20;99.90;;;;;;5032752;28;20275;-82
2021/11/17 15:19:51;;;;;;;85.20;32.17;;;3.20;99.90;;;;;;5032379;28;20307;-82
2021/11/17 15:22:17;;;;;;;87.40;32.50;;;3.20;99.90;;;;;;5034147;28;20177;-84
2021/11/17 15:24:43;;;;;;;84.77;31.83;;;3.20;99.90;;;;;;5016289;28;20193;-82
2021/11/17 15:27:34;;;;;;;90.47;32.93;;;3.20;99.90;;;;;;5023089;28;20519;-82
2021/11/17 15:30:03;;;;;;;99.63;40.37;;;3.10;99.90;;;;;;5032840;28;20238;-82
2021/11/17 15:32:30;;;;;;;96.30;37.10;;;3.10;99.90;;;;;;5034051;28;20229;-82
2021/11/17 15:34:55;;;;;;;90.90;36.10;;;3.60;99.90;;;;;;5032606;28;20210;-84
2021/11/17 15:37:24;;;;;;;130.27;57.20;;;3.10;99.90;;;;;;5018372;28;20201;-82
2021/11/17 15:39:50;;;;;;;91.70;36.43;;;3.20;99.90;;;;;;5033395;28;20182;-83
2021/11/17 15:42:15;;;;;;;106.07;37.30;;;3.10;99.90;;;;;;5015364;28;20212;-89
2021/11/17 15:44:41;;;;;;;154.77;57.30;;;3.10;99.90;;;;;;5031907;28;20197;-83
2021/11/17 15:47:09;;;;;;;95.90;35.40;;;3.00;99.90;;;;;;4999281;28;20547;-82
2021/11/17 15:49:37;;;;;;;105.40;34.97;;;3.40;99.90;;;;;;5033859;28;20667;-83